This is the latest recevied weather packets stored in our database for station/object K5FEP. If no packets are shown the sender has not sent any weather packets the latest 10 day(s).
| Time | Temp. | Humidity | Pressure | Rain* | Wind** | Luminosity | Snow |
|---|---|---|---|---|---|---|---|
| 1788472697 | 36.67° C | 41% | 1013.7 hPa | 0 mm | - | 192 W/m² | - |
| 1788472394 | 36.67° C | 40% | 1013.7 hPa | 0 mm | - | 204 W/m² | - |
| 1788472091 | 37.78° C | 38% | 1013.8 hPa | 0 mm | - | 92 W/m² | - |
| 1788471813 | 37.78° C | 37% | 1013.8 hPa | 0 mm | - | 173 W/m² | - |
| 1788471482 | 38.33° C | 35% | 1013.7 hPa | 0 mm | - | 274 W/m² | - |
| 1788471178 | 38.33° C | 37% | 1013.7 hPa | 0 mm | - | 287 W/m² | - |
| 1788470873 | 38.33° C | 36% | 1013.8 hPa | 0 mm | - | 317 W/m² | - |
| 1788470570 | 38.89° C | 35% | 1013.6 hPa | 0 mm | - | 125 W/m² | - |
| 1788470268 | 38.89° C | 35% | 1013.8 hPa | 0 mm | - | 394 W/m² | - |
| 1788469965 | 38.89° C | 36% | 1013.9 hPa | 0 mm | - | 418 W/m² | - |
| 1788469661 | 38.33° C | 35% | 1013.7 hPa | 0 mm | - | 413 W/m² | - |
| 1788469357 | 38.33° C | 37% | 1013.9 hPa | 0 mm | - | 435 W/m² | - |
| 1788469056 | 37.78° C | 35% | 1013.9 hPa | 0 mm | - | 162 W/m² | - |
| 1788468756 | 38.33° C | 35% | 1014 hPa | 0 mm | - | 202 W/m² | - |
| 1788468451 | 38.89° C | 33% | 1013.8 hPa | 0 mm | - | 164 W/m² | - |
| 1788468147 | 38.89° C | 33% | 1014 hPa | 0 mm | - | 184 W/m² | - |
| 1788467842 | 38.89° C | 34% | 1014 hPa | 0 mm | - | 471 W/m² | - |
| 1788467539 | 40° C | 31% | 1014.1 hPa | 0 mm | - | 582 W/m² | - |
| 1788467237 | 40° C | 32% | 1014.2 hPa | 0 mm | - | 619 W/m² | - |
| 1788466934 | 38.89° C | 33% | 1014.3 hPa | 0 mm | - | 635 W/m² | - |
| 1788466633 | 38.89° C | 33% | 1014.3 hPa | 0 mm | - | 621 W/m² | - |
| 1788466329 | 38.33° C | 34% | 1014.4 hPa | 0 mm | - | 520 W/m² | - |
| 1788466028 | 38.33° C | 35% | 1014.4 hPa | 0 mm | - | 599 W/m² | - |
| 1788465723 | 37.78° C | 36% | 1014.5 hPa | 0 mm | - | 630 W/m² | - |
| 1788465419 | 36.67° C | 38% | 1014.5 hPa | 0 mm | - | 212 W/m² | - |
* Rain latest hour (hover to see other rain measurements)
** Current wind speed in m/s (hover to see current wind gust speed)